sensor_id;sensor_type;location;lat;lon;timestamp;P1;durP1;ratioP1;P2;durP2;ratioP2
22849;SDS011;11591;44.792;10.358;2023-04-07T00:02:19;14.00;;;6.93;;
22849;SDS011;11591;44.792;10.358;2023-04-07T00:04:45;16.63;;;6.85;;
22849;SDS011;11591;44.792;10.358;2023-04-07T00:07:10;14.73;;;6.55;;
22849;SDS011;11591;44.792;10.358;2023-04-07T00:09:36;16.00;;;6.88;;
22849;SDS011;11591;44.792;10.358;2023-04-07T00:12:02;11.05;;;6.20;;
22849;SDS011;11591;44.792;10.358;2023-04-07T00:14:28;11.45;;;5.90;;
22849;SDS011;11591;44.792;10.358;2023-04-07T00:16:54;12.73;;;6.10;;
22849;SDS011;11591;44.792;10.358;2023-04-07T00:19:20;12.20;;;5.72;;
22849;SDS011;11591;44.792;10.358;2023-04-07T00:21:45;11.57;;;5.93;;
22849;SDS011;11591;44.792;10.358;2023-04-07T00:24:11;14.43;;;5.65;;
22849;SDS011;11591;44.792;10.358;2023-04-07T00:26:37;11.02;;;5.18;;
22849;SDS011;11591;44.792;10.358;2023-04-07T00:29:03;11.10;;;5.60;;
22849;SDS011;11591;44.792;10.358;2023-04-07T00:31:28;11.50;;;4.80;;
22849;SDS011;11591;44.792;10.358;2023-04-07T00:33:54;9.02;;;5.13;;
22849;SDS011;11591;44.792;10.358;2023-04-07T00:36:21;10.90;;;5.00;;
22849;SDS011;11591;44.792;10.358;2023-04-07T00:38:47;12.07;;;5.18;;
22849;SDS011;11591;44.792;10.358;2023-04-07T00:41:13;14.00;;;5.35;;
22849;SDS011;11591;44.792;10.358;2023-04-07T00:43:39;9.18;;;5.20;;
22849;SDS011;11591;44.792;10.358;2023-04-07T00:46:05;9.60;;;5.15;;
22849;SDS011;11591;44.792;10.358;2023-04-07T00:48:31;13.88;;;5.03;;
22849;SDS011;11591;44.792;10.358;2023-04-07T00:50:57;9.25;;;4.82;;
22849;SDS011;11591;44.792;10.358;2023-04-07T00:53:23;10.10;;;5.47;;
22849;SDS011;11591;44.792;10.358;2023-04-07T00:55:49;10.52;;;5.15;;
22849;SDS011;11591;44.792;10.358;2023-04-07T00:58:15;11.07;;;5.20;;
22849;SDS011;11591;44.792;10.358;2023-04-07T01:00:42;12.32;;;6.38;;
22849;SDS011;11591;44.792;10.358;2023-04-07T01:03:24;11.85;;;5.35;;
22849;SDS011;11591;44.792;10.358;2023-04-07T01:05:58;10.52;;;5.35;;
22849;SDS011;11591;44.792;10.358;2023-04-07T01:08:37;10.10;;;5.55;;
22849;SDS011;11591;44.792;10.358;2023-04-07T01:11:24;10.85;;;5.47;;
22849;SDS011;11591;44.792;10.358;2023-04-07T01:13:55;12.88;;;5.55;;
22849;SDS011;11591;44.792;10.358;2023-04-07T01:16:35;12.70;;;5.57;;
22849;SDS011;11591;44.792;10.358;2023-04-07T01:21:57;10.57;;;5.18;;
22849;SDS011;11591;44.792;10.358;2023-04-07T01:30:07;10.80;;;5.50;;
22849;SDS011;11591;44.792;10.358;2023-04-07T01:32:36;8.80;;;4.65;;
22849;SDS011;11591;44.792;10.358;2023-04-07T01:35:05;10.43;;;4.95;;
22849;SDS011;11591;44.792;10.358;2023-04-07T01:37:35;8.45;;;4.53;;
22849;SDS011;11591;44.792;10.358;2023-04-07T01:40:03;10.27;;;5.10;;
22849;SDS011;11591;44.792;10.358;2023-04-07T01:42:31;8.30;;;4.95;;
22849;SDS011;11591;44.792;10.358;2023-04-07T01:44:58;14.23;;;4.72;;
22849;SDS011;11591;44.792;10.358;2023-04-07T01:47:26;10.27;;;4.93;;
22849;SDS011;11591;44.792;10.358;2023-04-07T01:49:56;11.68;;;4.57;;
22849;SDS011;11591;44.792;10.358;2023-04-07T01:52:23;9.38;;;4.50;;
22849;SDS011;11591;44.792;10.358;2023-04-07T01:54:51;11.57;;;5.03;;
22849;SDS011;11591;44.792;10.358;2023-04-07T01:57:18;7.93;;;4.50;;
22849;SDS011;11591;44.792;10.358;2023-04-07T01:59:46;12.23;;;4.95;;
22849;SDS011;11591;44.792;10.358;2023-04-07T02:02:13;8.85;;;4.57;;
22849;SDS011;11591;44.792;10.358;2023-04-07T02:04:42;8.68;;;4.50;;
22849;SDS011;11591;44.792;10.358;2023-04-07T02:08:07;12.32;;;5.15;;
22849;SDS011;11591;44.792;10.358;2023-04-07T02:10:23;7.53;;;4.43;;
22849;SDS011;11591;44.792;10.358;2023-04-07T02:12:53;8.25;;;4.55;;
22849;SDS011;11591;44.792;10.358;2023-04-07T02:15:21;14.52;;;5.05;;
22849;SDS011;11591;44.792;10.358;2023-04-07T02:17:50;11.65;;;4.90;;
22849;SDS011;11591;44.792;10.358;2023-04-07T02:20:17;8.13;;;4.72;;
22849;SDS011;11591;44.792;10.358;2023-04-07T02:22:45;13.02;;;5.72;;
22849;SDS011;11591;44.792;10.358;2023-04-07T02:25:30;9.43;;;5.13;;
22849;SDS011;11591;44.792;10.358;2023-04-07T02:27:57;11.07;;;4.55;;
22849;SDS011;11591;44.792;10.358;2023-04-07T02:30:26;9.10;;;4.78;;
22849;SDS011;11591;44.792;10.358;2023-04-07T02:32:52;9.55;;;5.20;;
22849;SDS011;11591;44.792;10.358;2023-04-07T02:35:18;11.57;;;4.80;;
22849;SDS011;11591;44.792;10.358;2023-04-07T02:37:45;11.98;;;5.00;;
22849;SDS011;11591;44.792;10.358;2023-04-07T02:40:11;9.77;;;4.65;;
22849;SDS011;11591;44.792;10.358;2023-04-07T02:42:37;8.25;;;4.80;;
22849;SDS011;11591;44.792;10.358;2023-04-07T02:45:04;7.45;;;4.40;;
22849;SDS011;11591;44.792;10.358;2023-04-07T02:47:30;10.20;;;4.65;;
22849;SDS011;11591;44.792;10.358;2023-04-07T02:49:57;8.93;;;4.85;;
22849;SDS011;11591;44.792;10.358;2023-04-07T02:52:23;10.05;;;4.72;;
22849;SDS011;11591;44.792;10.358;2023-04-07T02:54:48;10.68;;;4.85;;
22849;SDS011;11591;44.792;10.358;2023-04-07T02:57:18;9.70;;;4.40;;
22849;SDS011;11591;44.792;10.358;2023-04-07T02:59:45;8.23;;;4.57;;
22849;SDS011;11591;44.792;10.358;2023-04-07T03:02:13;11.68;;;4.90;;
22849;SDS011;11591;44.792;10.358;2023-04-07T03:04:39;8.88;;;4.70;;
22849;SDS011;11591;44.792;10.358;2023-04-07T03:07:05;11.20;;;5.38;;
22849;SDS011;11591;44.792;10.358;2023-04-07T03:09:31;8.60;;;4.40;;
22849;SDS011;11591;44.792;10.358;2023-04-07T03:11:57;9.98;;;5.13;;
22849;SDS011;11591;44.792;10.358;2023-04-07T03:14:26;8.20;;;4.10;;
22849;SDS011;11591;44.792;10.358;2023-04-07T03:16:52;7.82;;;4.50;;
22849;SDS011;11591;44.792;10.358;2023-04-07T03:19:20;9.57;;;4.80;;
22849;SDS011;11591;44.792;10.358;2023-04-07T03:21:48;7.10;;;4.22;;
22849;SDS011;11591;44.792;10.358;2023-04-07T03:24:14;9.20;;;4.88;;
22849;SDS011;11591;44.792;10.358;2023-04-07T03:26:40;8.35;;;4.60;;
22849;SDS011;11591;44.792;10.358;2023-04-07T03:29:15;11.13;;;5.38;;
22849;SDS011;11591;44.792;10.358;2023-04-07T03:31:42;11.20;;;5.63;;
22849;SDS011;11591;44.792;10.358;2023-04-07T03:34:09;9.95;;;5.93;;
22849;SDS011;11591;44.792;10.358;2023-04-07T03:36:35;11.95;;;5.05;;
22849;SDS011;11591;44.792;10.358;2023-04-07T03:39:03;8.10;;;4.50;;
22849;SDS011;11591;44.792;10.358;2023-04-07T03:41:29;9.95;;;4.60;;
22849;SDS011;11591;44.792;10.358;2023-04-07T03:43:55;12.70;;;4.75;;
22849;SDS011;11591;44.792;10.358;2023-04-07T03:46:22;12.02;;;4.70;;
22849;SDS011;11591;44.792;10.358;2023-04-07T03:48:51;11.52;;;4.63;;
22849;SDS011;11591;44.792;10.358;2023-04-07T03:51:19;7.40;;;4.03;;
22849;SDS011;11591;44.792;10.358;2023-04-07T03:53:48;9.85;;;4.38;;
22849;SDS011;11591;44.792;10.358;2023-04-07T03:56:25;10.60;;;4.53;;
22849;SDS011;11591;44.792;10.358;2023-04-07T03:58:51;9.70;;;4.95;;
22849;SDS011;11591;44.792;10.358;2023-04-07T04:01:25;11.82;;;4.78;;
22849;SDS011;11591;44.792;10.358;2023-04-07T04:03:52;10.25;;;4.28;;
22849;SDS011;11591;44.792;10.358;2023-04-07T04:06:26;9.57;;;4.50;;
22849;SDS011;11591;44.792;10.358;2023-04-07T04:08:57;9.73;;;5.15;;
22849;SDS011;11591;44.792;10.358;2023-04-07T04:11:24;9.18;;;3.97;;
22849;SDS011;11591;44.792;10.358;2023-04-07T04:13:56;10.02;;;4.05;;
22849;SDS011;11591;44.792;10.358;2023-04-07T04:16:22;7.75;;;4.25;;
22849;SDS011;11591;44.792;10.358;2023-04-07T04:18:51;9.40;;;4.55;;
22849;SDS011;11591;44.792;10.358;2023-04-07T04:21:17;8.07;;;4.68;;
22849;SDS011;11591;44.792;10.358;2023-04-07T04:23:44;10.70;;;5.00;;
22849;SDS011;11591;44.792;10.358;2023-04-07T04:26:10;7.82;;;4.50;;
22849;SDS011;11591;44.792;10.358;2023-04-07T04:28:38;11.80;;;5.68;;
22849;SDS011;11591;44.792;10.358;2023-04-07T04:31:06;10.02;;;5.22;;
22849;SDS011;11591;44.792;10.358;2023-04-07T04:33:37;9.93;;;5.38;;
22849;SDS011;11591;44.792;10.358;2023-04-07T04:36:03;17.15;;;5.90;;
22849;SDS011;11591;44.792;10.358;2023-04-07T04:38:30;12.65;;;5.68;;
22849;SDS011;11591;44.792;10.358;2023-04-07T04:41:05;15.85;;;5.60;;
22849;SDS011;11591;44.792;10.358;2023-04-07T04:43:32;14.30;;;5.80;;
22849;SDS011;11591;44.792;10.358;2023-04-07T04:45:59;11.40;;;5.63;;
22849;SDS011;11591;44.792;10.358;2023-04-07T04:48:28;11.32;;;5.93;;
22849;SDS011;11591;44.792;10.358;2023-04-07T04:50:54;12.15;;;6.32;;
22849;SDS011;11591;44.792;10.358;2023-04-07T04:53:20;13.32;;;5.63;;
22849;SDS011;11591;44.792;10.358;2023-04-07T04:55:56;10.48;;;6.03;;
22849;SDS011;11591;44.792;10.358;2023-04-07T04:58:34;15.00;;;5.90;;
22849;SDS011;11591;44.792;10.358;2023-04-07T05:01:00;13.65;;;6.47;;
22849;SDS011;11591;44.792;10.358;2023-04-07T05:03:34;14.13;;;6.35;;
22849;SDS011;11591;44.792;10.358;2023-04-07T05:06:04;18.83;;;6.63;;
22849;SDS011;11591;44.792;10.358;2023-04-07T05:08:31;12.98;;;6.93;;
22849;SDS011;11591;44.792;10.358;2023-04-07T05:10:58;18.70;;;6.97;;
22849;SDS011;11591;44.792;10.358;2023-04-07T05:13:28;15.43;;;6.25;;
22849;SDS011;11591;44.792;10.358;2023-04-07T05:15:56;12.07;;;5.82;;
22849;SDS011;11591;44.792;10.358;2023-04-07T05:18:22;13.55;;;6.22;;
22849;SDS011;11591;44.792;10.358;2023-04-07T05:20:48;15.60;;;7.43;;
22849;SDS011;11591;44.792;10.358;2023-04-07T05:23:15;12.98;;;5.85;;
22849;SDS011;11591;44.792;10.358;2023-04-07T05:25:43;9.75;;;5.70;;
22849;SDS011;11591;44.792;10.358;2023-04-07T05:28:09;10.45;;;5.53;;
22849;SDS011;11591;44.792;10.358;2023-04-07T05:30:36;11.07;;;5.88;;
22849;SDS011;11591;44.792;10.358;2023-04-07T05:33:02;11.25;;;5.43;;
22849;SDS011;11591;44.792;10.358;2023-04-07T05:35:37;10.10;;;5.32;;
22849;SDS011;11591;44.792;10.358;2023-04-07T05:38:03;12.75;;;5.30;;
22849;SDS011;11591;44.792;10.358;2023-04-07T05:40:30;10.80;;;5.72;;
22849;SDS011;11591;44.792;10.358;2023-04-07T05:42:59;15.65;;;5.78;;
22849;SDS011;11591;44.792;10.358;2023-04-07T05:45:27;13.25;;;4.78;;
22849;SDS011;11591;44.792;10.358;2023-04-07T05:47:54;10.85;;;5.63;;
22849;SDS011;11591;44.792;10.358;2023-04-07T05:50:25;15.55;;;5.60;;
22849;SDS011;11591;44.792;10.358;2023-04-07T05:52:51;10.20;;;4.72;;
22849;SDS011;11591;44.792;10.358;2023-04-07T05:55:21;13.43;;;4.80;;
22849;SDS011;11591;44.792;10.358;2023-04-07T05:57:48;14.20;;;5.30;;
22849;SDS011;11591;44.792;10.358;2023-04-07T06:00:17;17.23;;;5.15;;
22849;SDS011;11591;44.792;10.358;2023-04-07T06:02:50;8.38;;;4.78;;
22849;SDS011;11591;44.792;10.358;2023-04-07T06:05:18;10.65;;;5.20;;
22849;SDS011;11591;44.792;10.358;2023-04-07T06:07:47;9.48;;;4.93;;
22849;SDS011;11591;44.792;10.358;2023-04-07T06:10:13;7.28;;;4.45;;
22849;SDS011;11591;44.792;10.358;2023-04-07T06:12:39;12.50;;;4.65;;
22849;SDS011;11591;44.792;10.358;2023-04-07T06:15:05;11.60;;;4.93;;
22849;SDS011;11591;44.792;10.358;2023-04-07T06:17:31;13.70;;;4.80;;
22849;SDS011;11591;44.792;10.358;2023-04-07T06:19:57;16.67;;;4.68;;
22849;SDS011;11591;44.792;10.358;2023-04-07T06:22:23;8.90;;;4.22;;
22849;SDS011;11591;44.792;10.358;2023-04-07T06:24:48;8.50;;;4.45;;
22849;SDS011;11591;44.792;10.358;2023-04-07T06:27:14;12.10;;;5.32;;
22849;SDS011;11591;44.792;10.358;2023-04-07T06:29:41;8.93;;;5.10;;
22849;SDS011;11591;44.792;10.358;2023-04-07T06:32:07;11.02;;;5.10;;
22849;SDS011;11591;44.792;10.358;2023-04-07T06:34:34;13.27;;;4.63;;
22849;SDS011;11591;44.792;10.358;2023-04-07T06:37:00;12.15;;;4.75;;
22849;SDS011;11591;44.792;10.358;2023-04-07T06:39:26;16.80;;;5.18;;
22849;SDS011;11591;44.792;10.358;2023-04-07T06:41:52;9.63;;;4.40;;
22849;SDS011;11591;44.792;10.358;2023-04-07T06:44:18;14.48;;;4.85;;
22849;SDS011;11591;44.792;10.358;2023-04-07T06:46:43;16.05;;;5.25;;
22849;SDS011;11591;44.792;10.358;2023-04-07T06:49:11;8.23;;;4.90;;
22849;SDS011;11591;44.792;10.358;2023-04-07T06:51:37;10.02;;;4.90;;
22849;SDS011;11591;44.792;10.358;2023-04-07T06:54:03;11.07;;;5.10;;
22849;SDS011;11591;44.792;10.358;2023-04-07T06:56:30;12.02;;;5.22;;
22849;SDS011;11591;44.792;10.358;2023-04-07T06:58:55;12.93;;;4.88;;
22849;SDS011;11591;44.792;10.358;2023-04-07T07:01:21;12.27;;;5.25;;
22849;SDS011;11591;44.792;10.358;2023-04-07T07:03:47;13.38;;;5.43;;
22849;SDS011;11591;44.792;10.358;2023-04-07T07:06:12;10.00;;;4.85;;
22849;SDS011;11591;44.792;10.358;2023-04-07T07:08:38;13.70;;;5.03;;
22849;SDS011;11591;44.792;10.358;2023-04-07T07:11:04;9.27;;;4.95;;
22849;SDS011;11591;44.792;10.358;2023-04-07T07:13:30;11.95;;;5.65;;
22849;SDS011;11591;44.792;10.358;2023-04-07T07:15:55;10.40;;;5.60;;
22849;SDS011;11591;44.792;10.358;2023-04-07T07:18:21;15.30;;;5.57;;
22849;SDS011;11591;44.792;10.358;2023-04-07T07:20:47;14.13;;;6.03;;
22849;SDS011;11591;44.792;10.358;2023-04-07T07:23:13;14.38;;;6.05;;
22849;SDS011;11591;44.792;10.358;2023-04-07T07:25:39;16.08;;;6.50;;
22849;SDS011;11591;44.792;10.358;2023-04-07T07:28:05;19.92;;;6.78;;
22849;SDS011;11591;44.792;10.358;2023-04-07T07:30:30;18.02;;;6.97;;
22849;SDS011;11591;44.792;10.358;2023-04-07T07:32:56;12.40;;;6.57;;
22849;SDS011;11591;44.792;10.358;2023-04-07T07:35:22;18.23;;;6.68;;
22849;SDS011;11591;44.792;10.358;2023-04-07T07:37:49;17.08;;;6.60;;
22849;SDS011;11591;44.792;10.358;2023-04-07T07:40:16;13.85;;;7.10;;
22849;SDS011;11591;44.792;10.358;2023-04-07T07:42:42;17.10;;;6.90;;
22849;SDS011;11591;44.792;10.358;2023-04-07T07:45:08;14.35;;;6.18;;
22849;SDS011;11591;44.792;10.358;2023-04-07T07:47:34;21.20;;;7.15;;
22849;SDS011;11591;44.792;10.358;2023-04-07T07:50:02;15.38;;;7.47;;
22849;SDS011;11591;44.792;10.358;2023-04-07T07:52:28;16.98;;;7.50;;
22849;SDS011;11591;44.792;10.358;2023-04-07T07:54:55;14.50;;;7.28;;
22849;SDS011;11591;44.792;10.358;2023-04-07T07:57:21;14.68;;;7.45;;
22849;SDS011;11591;44.792;10.358;2023-04-07T07:59:46;14.35;;;6.82;;
22849;SDS011;11591;44.792;10.358;2023-04-07T08:02:12;14.40;;;7.05;;
22849;SDS011;11591;44.792;10.358;2023-04-07T08:04:38;14.13;;;6.95;;
22849;SDS011;11591;44.792;10.358;2023-04-07T08:07:03;16.05;;;7.43;;
22849;SDS011;11591;44.792;10.358;2023-04-07T08:09:29;17.92;;;7.72;;
22849;SDS011;11591;44.792;10.358;2023-04-07T08:11:56;18.80;;;8.23;;
22849;SDS011;11591;44.792;10.358;2023-04-07T08:14:22;19.98;;;7.97;;
22849;SDS011;11591;44.792;10.358;2023-04-07T08:16:48;19.00;;;7.78;;
22849;SDS011;11591;44.792;10.358;2023-04-07T08:19:14;23.65;;;8.55;;
22849;SDS011;11591;44.792;10.358;2023-04-07T08:21:40;18.73;;;8.65;;
22849;SDS011;11591;44.792;10.358;2023-04-07T08:24:06;20.30;;;8.73;;
22849;SDS011;11591;44.792;10.358;2023-04-07T08:26:33;19.48;;;8.68;;
22849;SDS011;11591;44.792;10.358;2023-04-07T08:28:59;19.60;;;9.05;;
22849;SDS011;11591;44.792;10.358;2023-04-07T08:31:24;20.27;;;9.45;;
22849;SDS011;11591;44.792;10.358;2023-04-07T08:33:50;22.33;;;8.75;;
22849;SDS011;11591;44.792;10.358;2023-04-07T08:36:25;26.27;;;9.57;;
22849;SDS011;11591;44.792;10.358;2023-04-07T08:38:52;20.17;;;8.93;;
22849;SDS011;11591;44.792;10.358;2023-04-07T08:41:40;26.33;;;10.18;;
22849;SDS011;11591;44.792;10.358;2023-04-07T08:44:05;20.85;;;9.38;;
22849;SDS011;11591;44.792;10.358;2023-04-07T08:46:33;19.63;;;8.60;;
22849;SDS011;11591;44.792;10.358;2023-04-07T08:49:00;25.83;;;10.18;;
22849;SDS011;11591;44.792;10.358;2023-04-07T08:51:27;23.90;;;9.38;;
22849;SDS011;11591;44.792;10.358;2023-04-07T08:54:31;17.25;;;9.43;;
22849;SDS011;11591;44.792;10.358;2023-04-07T08:56:50;22.83;;;10.10;;
22849;SDS011;11591;44.792;10.358;2023-04-07T08:59:16;20.60;;;9.65;;
22849;SDS011;11591;44.792;10.358;2023-04-07T09:01:42;27.58;;;10.75;;
22849;SDS011;11591;44.792;10.358;2023-04-07T09:04:10;21.65;;;9.82;;
22849;SDS011;11591;44.792;10.358;2023-04-07T09:06:36;27.60;;;10.45;;
22849;SDS011;11591;44.792;10.358;2023-04-07T09:09:02;21.00;;;9.60;;
22849;SDS011;11591;44.792;10.358;2023-04-07T09:11:33;16.95;;;8.57;;
22849;SDS011;11591;44.792;10.358;2023-04-07T09:14:02;19.73;;;9.05;;
22849;SDS011;11591;44.792;10.358;2023-04-07T09:16:28;24.83;;;10.32;;
22849;SDS011;11591;44.792;10.358;2023-04-07T09:18:57;22.25;;;10.18;;
22849;SDS011;11591;44.792;10.358;2023-04-07T09:21:23;22.33;;;9.73;;
22849;SDS011;11591;44.792;10.358;2023-04-07T09:23:49;19.25;;;9.40;;
22849;SDS011;11591;44.792;10.358;2023-04-07T09:28:57;26.05;;;10.85;;
22849;SDS011;11591;44.792;10.358;2023-04-07T09:31:42;27.90;;;10.27;;
22849;SDS011;11591;44.792;10.358;2023-04-07T09:36:59;20.70;;;10.00;;
22849;SDS011;11591;44.792;10.358;2023-04-07T09:39:25;19.48;;;10.65;;
22849;SDS011;11591;44.792;10.358;2023-04-07T09:41:51;19.65;;;10.32;;
22849;SDS011;11591;44.792;10.358;2023-04-07T09:44:18;22.40;;;9.95;;
22849;SDS011;11591;44.792;10.358;2023-04-07T09:46:48;23.95;;;10.35;;
22849;SDS011;11591;44.792;10.358;2023-04-07T09:49:17;26.55;;;11.05;;
22849;SDS011;11591;44.792;10.358;2023-04-07T09:51:57;19.75;;;10.30;;
22849;SDS011;11591;44.792;10.358;2023-04-07T09:54:37;23.20;;;11.23;;
22849;SDS011;11591;44.792;10.358;2023-04-07T09:57:06;26.70;;;11.27;;
22849;SDS011;11591;44.792;10.358;2023-04-07T09:59:34;26.95;;;11.93;;
22849;SDS011;11591;44.792;10.358;2023-04-07T10:02:03;24.20;;;11.82;;
22849;SDS011;11591;44.792;10.358;2023-04-07T10:04:30;23.88;;;11.13;;
22849;SDS011;11591;44.792;10.358;2023-04-07T10:06:56;29.02;;;10.95;;
22849;SDS011;11591;44.792;10.358;2023-04-07T10:09:24;23.05;;;11.75;;
22849;SDS011;11591;44.792;10.358;2023-04-07T10:11:53;24.02;;;11.30;;
22849;SDS011;11591;44.792;10.358;2023-04-07T10:14:22;22.25;;;11.10;;
22849;SDS011;11591;44.792;10.358;2023-04-07T10:16:55;23.35;;;11.10;;
22849;SDS011;11591;44.792;10.358;2023-04-07T10:19:22;25.38;;;11.52;;
22849;SDS011;11591;44.792;10.358;2023-04-07T10:21:50;21.80;;;10.73;;
22849;SDS011;11591;44.792;10.358;2023-04-07T10:27:04;18.17;;;9.18;;
22849;SDS011;11591;44.792;10.358;2023-04-07T10:29:34;25.58;;;12.50;;
22849;SDS011;11591;44.792;10.358;2023-04-07T10:32:04;24.92;;;11.63;;
22849;SDS011;11591;44.792;10.358;2023-04-07T10:37:15;22.95;;;11.00;;
22849;SDS011;11591;44.792;10.358;2023-04-07T10:39:45;25.52;;;11.15;;
22849;SDS011;11591;44.792;10.358;2023-04-07T10:45:03;21.05;;;10.75;;
22849;SDS011;11591;44.792;10.358;2023-04-07T10:48:19;21.17;;;11.32;;
22849;SDS011;11591;44.792;10.358;2023-04-07T10:50:39;22.27;;;11.40;;
22849;SDS011;11591;44.792;10.358;2023-04-07T10:53:15;26.77;;;11.23;;
22849;SDS011;11591;44.792;10.358;2023-04-07T10:55:44;26.10;;;11.95;;
22849;SDS011;11591;44.792;10.358;2023-04-07T11:03:40;29.63;;;13.48;;
22849;SDS011;11591;44.792;10.358;2023-04-07T11:06:11;26.27;;;13.30;;
22849;SDS011;11591;44.792;10.358;2023-04-07T11:08:38;28.52;;;12.57;;
22849;SDS011;11591;44.792;10.358;2023-04-07T11:11:08;26.42;;;12.25;;
22849;SDS011;11591;44.792;10.358;2023-04-07T11:13:42;23.63;;;12.27;;
22849;SDS011;11591;44.792;10.358;2023-04-07T11:16:11;23.83;;;12.73;;
22849;SDS011;11591;44.792;10.358;2023-04-07T11:18:37;24.58;;;11.48;;
22849;SDS011;11591;44.792;10.358;2023-04-07T11:21:04;26.58;;;12.07;;
22849;SDS011;11591;44.792;10.358;2023-04-07T11:23:37;23.90;;;11.85;;
22849;SDS011;11591;44.792;10.358;2023-04-07T11:26:07;27.45;;;13.00;;
22849;SDS011;11591;44.792;10.358;2023-04-07T11:28:50;23.35;;;13.02;;
22849;SDS011;11591;44.792;10.358;2023-04-07T11:31:21;25.67;;;13.40;;
22849;SDS011;11591;44.792;10.358;2023-04-07T11:33:55;27.25;;;13.75;;
22849;SDS011;11591;44.792;10.358;2023-04-07T11:36:29;29.17;;;13.80;;
22849;SDS011;11591;44.792;10.358;2023-04-07T11:38:57;26.25;;;14.30;;
22849;SDS011;11591;44.792;10.358;2023-04-07T11:41:24;27.60;;;14.13;;
22849;SDS011;11591;44.792;10.358;2023-04-07T11:44:10;27.75;;;13.45;;
22849;SDS011;11591;44.792;10.358;2023-04-07T11:46:50;27.98;;;14.50;;
22849;SDS011;11591;44.792;10.358;2023-04-07T11:49:24;27.75;;;14.75;;
22849;SDS011;11591;44.792;10.358;2023-04-07T11:52:03;28.27;;;14.52;;
22849;SDS011;11591;44.792;10.358;2023-04-07T11:54:38;25.90;;;13.63;;
22849;SDS011;11591;44.792;10.358;2023-04-07T11:57:08;27.27;;;14.90;;
22849;SDS011;11591;44.792;10.358;2023-04-07T11:59:36;30.25;;;14.93;;
22849;SDS011;11591;44.792;10.358;2023-04-07T12:02:03;29.42;;;15.10;;
22849;SDS011;11591;44.792;10.358;2023-04-07T12:04:29;30.70;;;15.75;;
22849;SDS011;11591;44.792;10.358;2023-04-07T12:07:05;29.83;;;14.77;;
22849;SDS011;11591;44.792;10.358;2023-04-07T12:09:34;27.70;;;13.85;;
22849;SDS011;11591;44.792;10.358;2023-04-07T12:12:04;29.70;;;13.93;;
22849;SDS011;11591;44.792;10.358;2023-04-07T12:14:32;29.67;;;14.82;;
22849;SDS011;11591;44.792;10.358;2023-04-07T12:16:58;32.40;;;14.25;;
22849;SDS011;11591;44.792;10.358;2023-04-07T12:19:27;27.17;;;14.10;;
22849;SDS011;11591;44.792;10.358;2023-04-07T12:21:54;25.65;;;13.38;;
22849;SDS011;11591;44.792;10.358;2023-04-07T12:24:20;26.48;;;13.35;;
22849;SDS011;11591;44.792;10.358;2023-04-07T12:26:47;26.73;;;13.85;;
22849;SDS011;11591;44.792;10.358;2023-04-07T12:29:15;29.65;;;13.93;;
22849;SDS011;11591;44.792;10.358;2023-04-07T12:31:44;32.63;;;14.02;;
22849;SDS011;11591;44.792;10.358;2023-04-07T12:34:09;25.88;;;12.82;;
22849;SDS011;11591;44.792;10.358;2023-04-07T12:36:35;25.40;;;13.73;;
22849;SDS011;11591;44.792;10.358;2023-04-07T12:39:01;26.05;;;13.30;;
22849;SDS011;11591;44.792;10.358;2023-04-07T12:41:27;27.02;;;13.50;;
22849;SDS011;11591;44.792;10.358;2023-04-07T12:43:53;27.30;;;13.57;;
22849;SDS011;11591;44.792;10.358;2023-04-07T12:46:18;23.02;;;12.75;;
22849;SDS011;11591;44.792;10.358;2023-04-07T12:48:45;24.65;;;13.15;;
22849;SDS011;11591;44.792;10.358;2023-04-07T12:51:12;22.95;;;12.50;;
22849;SDS011;11591;44.792;10.358;2023-04-07T12:53:38;23.45;;;13.25;;
22849;SDS011;11591;44.792;10.358;2023-04-07T12:56:04;26.38;;;13.32;;
22849;SDS011;11591;44.792;10.358;2023-04-07T12:58:29;24.42;;;12.95;;
22849;SDS011;11591;44.792;10.358;2023-04-07T13:00:55;26.88;;;13.05;;
22849;SDS011;11591;44.792;10.358;2023-04-07T13:03:40;26.35;;;12.60;;
22849;SDS011;11591;44.792;10.358;2023-04-07T13:06:07;25.00;;;13.13;;
22849;SDS011;11591;44.792;10.358;2023-04-07T13:08:35;24.83;;;12.50;;
22849;SDS011;11591;44.792;10.358;2023-04-07T13:11:00;24.23;;;12.55;;
22849;SDS011;11591;44.792;10.358;2023-04-07T13:13:45;29.65;;;13.02;;
22849;SDS011;11591;44.792;10.358;2023-04-07T13:16:10;26.58;;;13.10;;
22849;SDS011;11591;44.792;10.358;2023-04-07T13:18:36;28.85;;;13.80;;
22849;SDS011;11591;44.792;10.358;2023-04-07T13:21:21;31.67;;;14.32;;
22849;SDS011;11591;44.792;10.358;2023-04-07T13:23:47;24.52;;;12.10;;
22849;SDS011;11591;44.792;10.358;2023-04-07T13:26:14;28.17;;;14.02;;
22849;SDS011;11591;44.792;10.358;2023-04-07T13:28:40;24.40;;;12.15;;
22849;SDS011;11591;44.792;10.358;2023-04-07T13:31:06;28.33;;;13.30;;
22849;SDS011;11591;44.792;10.358;2023-04-07T13:33:34;27.13;;;12.25;;
22849;SDS011;11591;44.792;10.358;2023-04-07T13:36:01;27.80;;;13.88;;
22849;SDS011;11591;44.792;10.358;2023-04-07T13:38:27;25.38;;;12.40;;
22849;SDS011;11591;44.792;10.358;2023-04-07T13:40:53;28.70;;;13.93;;
22849;SDS011;11591;44.792;10.358;2023-04-07T13:43:19;30.98;;;15.10;;
22849;SDS011;11591;44.792;10.358;2023-04-07T13:45:44;33.83;;;15.23;;
22849;SDS011;11591;44.792;10.358;2023-04-07T13:48:10;34.40;;;16.52;;
22849;SDS011;11591;44.792;10.358;2023-04-07T13:50:37;32.97;;;14.75;;
22849;SDS011;11591;44.792;10.358;2023-04-07T13:53:03;31.73;;;15.23;;
22849;SDS011;11591;44.792;10.358;2023-04-07T13:55:28;31.50;;;14.35;;
22849;SDS011;11591;44.792;10.358;2023-04-07T13:57:54;24.77;;;12.77;;
22849;SDS011;11591;44.792;10.358;2023-04-07T14:00:20;24.55;;;12.38;;
22849;SDS011;11591;44.792;10.358;2023-04-07T14:02:46;23.98;;;12.10;;
22849;SDS011;11591;44.792;10.358;2023-04-07T14:05:12;25.90;;;12.07;;
22849;SDS011;11591;44.792;10.358;2023-04-07T14:07:38;21.80;;;11.38;;
22849;SDS011;11591;44.792;10.358;2023-04-07T14:10:04;27.00;;;11.18;;
22849;SDS011;11591;44.792;10.358;2023-04-07T14:12:31;23.25;;;10.75;;
22849;SDS011;11591;44.792;10.358;2023-04-07T14:14:56;22.48;;;11.00;;
22849;SDS011;11591;44.792;10.358;2023-04-07T14:17:22;22.08;;;10.55;;
22849;SDS011;11591;44.792;10.358;2023-04-07T14:19:48;21.08;;;10.18;;
22849;SDS011;11591;44.792;10.358;2023-04-07T14:22:14;20.25;;;10.35;;
22849;SDS011;11591;44.792;10.358;2023-04-07T14:24:40;21.17;;;10.63;;
22849;SDS011;11591;44.792;10.358;2023-04-07T14:27:06;17.50;;;9.32;;
22849;SDS011;11591;44.792;10.358;2023-04-07T14:29:32;18.55;;;9.43;;
22849;SDS011;11591;44.792;10.358;2023-04-07T14:31:58;22.80;;;10.20;;
22849;SDS011;11591;44.792;10.358;2023-04-07T14:34:23;26.58;;;11.05;;
22849;SDS011;11591;44.792;10.358;2023-04-07T14:36:55;20.80;;;11.13;;
22849;SDS011;11591;44.792;10.358;2023-04-07T14:39:22;22.38;;;12.27;;
22849;SDS011;11591;44.792;10.358;2023-04-07T14:41:49;27.40;;;11.95;;
22849;SDS011;11591;44.792;10.358;2023-04-07T14:44:16;27.40;;;12.68;;
22849;SDS011;11591;44.792;10.358;2023-04-07T14:46:42;27.35;;;13.00;;
22849;SDS011;11591;44.792;10.358;2023-04-07T14:49:08;25.40;;;12.68;;
22849;SDS011;11591;44.792;10.358;2023-04-07T14:51:34;25.05;;;12.88;;
22849;SDS011;11591;44.792;10.358;2023-04-07T14:54:00;22.70;;;12.70;;